sensor_id;sensor_type;location;lat;lon;timestamp;temperature;humidity
16643;DHT22;8435;52.184;5.406;2024-03-17T00:00:30;8.30;99.90
16643;DHT22;8435;52.184;5.406;2024-03-17T00:02:57;8.30;99.90
16643;DHT22;8435;52.184;5.406;2024-03-17T00:05:22;8.30;99.90
16643;DHT22;8435;52.184;5.406;2024-03-17T00:07:51;8.30;99.90
16643;DHT22;8435;52.184;5.406;2024-03-17T00:10:16;8.30;99.90
16643;DHT22;8435;52.184;5.406;2024-03-17T00:12:43;8.30;99.90
16643;DHT22;8435;52.184;5.406;2024-03-17T00:15:09;8.30;99.90
16643;DHT22;8435;52.184;5.406;2024-03-17T00:17:36;8.30;99.90
16643;DHT22;8435;52.184;5.406;2024-03-17T00:20:03;8.40;99.90
16643;DHT22;8435;52.184;5.406;2024-03-17T00:22:34;8.30;99.90
16643;DHT22;8435;52.184;5.406;2024-03-17T00:25:05;8.30;99.90
16643;DHT22;8435;52.184;5.406;2024-03-17T00:27:32;8.30;99.90
16643;DHT22;8435;52.184;5.406;2024-03-17T00:29:58;8.30;99.90
16643;DHT22;8435;52.184;5.406;2024-03-17T00:32:25;8.30;99.90
16643;DHT22;8435;52.184;5.406;2024-03-17T00:34:51;8.30;99.90
16643;DHT22;8435;52.184;5.406;2024-03-17T00:37:19;8.30;99.90
16643;DHT22;8435;52.184;5.406;2024-03-17T00:39:44;8.30;99.90
16643;DHT22;8435;52.184;5.406;2024-03-17T00:42:12;8.30;99.90
16643;DHT22;8435;52.184;5.406;2024-03-17T00:44:39;8.30;99.90
16643;DHT22;8435;52.184;5.406;2024-03-17T00:47:08;8.30;99.90
16643;DHT22;8435;52.184;5.406;2024-03-17T00:49:34;8.30;99.90
16643;DHT22;8435;52.184;5.406;2024-03-17T00:52:00;8.30;99.90
16643;DHT22;8435;52.184;5.406;2024-03-17T00:54:26;8.20;99.90
16643;DHT22;8435;52.184;5.406;2024-03-17T00:56:54;8.30;99.90
16643;DHT22;8435;52.184;5.406;2024-03-17T00:59:24;8.20;99.90
16643;DHT22;8435;52.184;5.406;2024-03-17T01:01:53;8.30;99.90
16643;DHT22;8435;52.184;5.406;2024-03-17T01:04:19;8.30;99.90
16643;DHT22;8435;52.184;5.406;2024-03-17T01:06:46;8.40;99.90
16643;DHT22;8435;52.184;5.406;2024-03-17T01:09:12;8.40;99.90
16643;DHT22;8435;52.184;5.406;2024-03-17T01:11:41;8.40;99.90
16643;DHT22;8435;52.184;5.406;2024-03-17T01:14:06;8.50;99.90
16643;DHT22;8435;52.184;5.406;2024-03-17T01:16:35;8.50;99.90
16643;DHT22;8435;52.184;5.406;2024-03-17T01:19:01;8.50;99.90
16643;DHT22;8435;52.184;5.406;2024-03-17T01:21:28;8.50;99.90
16643;DHT22;8435;52.184;5.406;2024-03-17T01:23:54;8.50;99.90
16643;DHT22;8435;52.184;5.406;2024-03-17T01:26:21;8.60;99.90
16643;DHT22;8435;52.184;5.406;2024-03-17T01:28:50;8.60;99.90
16643;DHT22;8435;52.184;5.406;2024-03-17T01:31:17;8.60;99.90
16643;DHT22;8435;52.184;5.406;2024-03-17T01:33:47;8.60;99.90
16643;DHT22;8435;52.184;5.406;2024-03-17T01:36:14;8.60;99.90
16643;DHT22;8435;52.184;5.406;2024-03-17T01:38:43;8.60;99.90
16643;DHT22;8435;52.184;5.406;2024-03-17T01:41:12;8.60;99.90
16643;DHT22;8435;52.184;5.406;2024-03-17T01:43:38;8.60;99.90
16643;DHT22;8435;52.184;5.406;2024-03-17T01:46:05;8.60;99.90
16643;DHT22;8435;52.184;5.406;2024-03-17T01:48:31;8.60;99.90
16643;DHT22;8435;52.184;5.406;2024-03-17T01:51:01;8.60;99.90
16643;DHT22;8435;52.184;5.406;2024-03-17T01:53:32;8.60;99.90
16643;DHT22;8435;52.184;5.406;2024-03-17T01:55:59;8.60;99.90
16643;DHT22;8435;52.184;5.406;2024-03-17T01:58:26;8.60;99.90
16643;DHT22;8435;52.184;5.406;2024-03-17T02:00:53;8.60;99.90
16643;DHT22;8435;52.184;5.406;2024-03-17T02:03:19;8.60;99.90
16643;DHT22;8435;52.184;5.406;2024-03-17T02:05:47;8.60;99.90
16643;DHT22;8435;52.184;5.406;2024-03-17T02:08:15;8.60;99.90
16643;DHT22;8435;52.184;5.406;2024-03-17T02:10:43;8.60;99.90
16643;DHT22;8435;52.184;5.406;2024-03-17T02:13:09;8.60;99.90
16643;DHT22;8435;52.184;5.406;2024-03-17T02:15:36;8.60;99.90
16643;DHT22;8435;52.184;5.406;2024-03-17T02:18:03;8.60;99.90
16643;DHT22;8435;52.184;5.406;2024-03-17T02:20:30;8.60;99.90
16643;DHT22;8435;52.184;5.406;2024-03-17T02:23:12;8.60;99.90
16643;DHT22;8435;52.184;5.406;2024-03-17T02:25:39;8.60;99.90
16643;DHT22;8435;52.184;5.406;2024-03-17T02:28:05;8.60;99.90
16643;DHT22;8435;52.184;5.406;2024-03-17T02:30:33;8.70;99.90
16643;DHT22;8435;52.184;5.406;2024-03-17T02:33:00;8.60;99.90
16643;DHT22;8435;52.184;5.406;2024-03-17T02:35:27;8.70;99.90
16643;DHT22;8435;52.184;5.406;2024-03-17T02:37:53;8.70;99.90
16643;DHT22;8435;52.184;5.406;2024-03-17T02:40:21;8.70;99.90
16643;DHT22;8435;52.184;5.406;2024-03-17T02:42:47;8.70;99.90
16643;DHT22;8435;52.184;5.406;2024-03-17T02:45:17;8.70;99.90
16643;DHT22;8435;52.184;5.406;2024-03-17T02:47:45;8.70;99.90
16643;DHT22;8435;52.184;5.406;2024-03-17T02:50:12;8.70;99.90
16643;DHT22;8435;52.184;5.406;2024-03-17T02:52:39;8.70;99.90
16643;DHT22;8435;52.184;5.406;2024-03-17T02:55:06;8.80;99.90
16643;DHT22;8435;52.184;5.406;2024-03-17T02:57:34;8.80;99.90
16643;DHT22;8435;52.184;5.406;2024-03-17T03:00:03;8.80;99.90
16643;DHT22;8435;52.184;5.406;2024-03-17T03:02:30;8.80;99.90
16643;DHT22;8435;52.184;5.406;2024-03-17T03:04:57;8.80;99.90
16643;DHT22;8435;52.184;5.406;2024-03-17T03:07:27;8.70;99.90
16643;DHT22;8435;52.184;5.406;2024-03-17T03:09:53;8.70;99.90
16643;DHT22;8435;52.184;5.406;2024-03-17T03:12:23;8.70;99.90
16643;DHT22;8435;52.184;5.406;2024-03-17T03:14:51;8.70;99.90
16643;DHT22;8435;52.184;5.406;2024-03-17T03:17:17;8.70;99.90
16643;DHT22;8435;52.184;5.406;2024-03-17T03:19:45;8.70;99.90
16643;DHT22;8435;52.184;5.406;2024-03-17T03:22:11;8.70;99.90
16643;DHT22;8435;52.184;5.406;2024-03-17T03:24:38;8.70;99.90
16643;DHT22;8435;52.184;5.406;2024-03-17T03:27:07;8.70;99.90
16643;DHT22;8435;52.184;5.406;2024-03-17T03:29:34;8.80;99.90
16643;DHT22;8435;52.184;5.406;2024-03-17T03:32:05;8.80;99.90
16643;DHT22;8435;52.184;5.406;2024-03-17T03:34:33;8.80;99.90
16643;DHT22;8435;52.184;5.406;2024-03-17T03:37:00;8.80;99.90
16643;DHT22;8435;52.184;5.406;2024-03-17T03:39:27;8.80;99.90
16643;DHT22;8435;52.184;5.406;2024-03-17T03:41:57;8.80;99.90
16643;DHT22;8435;52.184;5.406;2024-03-17T03:44:24;8.90;99.90
16643;DHT22;8435;52.184;5.406;2024-03-17T03:46:51;8.90;99.90
16643;DHT22;8435;52.184;5.406;2024-03-17T03:49:22;8.90;99.90
16643;DHT22;8435;52.184;5.406;2024-03-17T03:51:48;8.90;99.90
16643;DHT22;8435;52.184;5.406;2024-03-17T03:54:15;9.00;99.90
16643;DHT22;8435;52.184;5.406;2024-03-17T03:56:42;9.00;99.90
16643;DHT22;8435;52.184;5.406;2024-03-17T03:59:15;9.00;99.90
16643;DHT22;8435;52.184;5.406;2024-03-17T04:01:42;9.00;99.90
16643;DHT22;8435;52.184;5.406;2024-03-17T04:04:09;9.00;99.90
16643;DHT22;8435;52.184;5.406;2024-03-17T04:06:37;9.00;99.90
16643;DHT22;8435;52.184;5.406;2024-03-17T04:09:04;9.00;99.90
16643;DHT22;8435;52.184;5.406;2024-03-17T04:11:34;9.00;99.90
16643;DHT22;8435;52.184;5.406;2024-03-17T04:14:02;9.00;99.90
16643;DHT22;8435;52.184;5.406;2024-03-17T04:16:32;9.00;99.90
16643;DHT22;8435;52.184;5.406;2024-03-17T04:19:02;9.10;99.90
16643;DHT22;8435;52.184;5.406;2024-03-17T04:21:29;9.10;99.90
16643;DHT22;8435;52.184;5.406;2024-03-17T04:23:57;9.00;99.90
16643;DHT22;8435;52.184;5.406;2024-03-17T04:26:23;9.10;99.90
16643;DHT22;8435;52.184;5.406;2024-03-17T04:28:50;9.00;99.90
16643;DHT22;8435;52.184;5.406;2024-03-17T04:31:18;9.00;99.90
16643;DHT22;8435;52.184;5.406;2024-03-17T04:33:44;9.00;99.90
16643;DHT22;8435;52.184;5.406;2024-03-17T04:36:13;9.00;99.90
16643;DHT22;8435;52.184;5.406;2024-03-17T04:38:40;9.00;99.90
16643;DHT22;8435;52.184;5.406;2024-03-17T04:41:15;9.00;99.90
16643;DHT22;8435;52.184;5.406;2024-03-17T04:43:42;9.00;99.90
16643;DHT22;8435;52.184;5.406;2024-03-17T04:46:08;9.00;99.90
16643;DHT22;8435;52.184;5.406;2024-03-17T04:48:41;8.90;99.90
16643;DHT22;8435;52.184;5.406;2024-03-17T04:51:14;8.90;99.90
16643;DHT22;8435;52.184;5.406;2024-03-17T04:53:41;8.90;99.90
16643;DHT22;8435;52.184;5.406;2024-03-17T04:56:09;8.90;99.90
16643;DHT22;8435;52.184;5.406;2024-03-17T04:58:39;8.90;99.90
16643;DHT22;8435;52.184;5.406;2024-03-17T05:01:06;8.90;99.90
16643;DHT22;8435;52.184;5.406;2024-03-17T05:03:32;8.90;99.90
16643;DHT22;8435;52.184;5.406;2024-03-17T05:06:00;8.90;99.90
16643;DHT22;8435;52.184;5.406;2024-03-17T05:08:27;8.90;99.90
16643;DHT22;8435;52.184;5.406;2024-03-17T05:10:56;8.90;99.90
16643;DHT22;8435;52.184;5.406;2024-03-17T05:13:25;9.00;99.90
16643;DHT22;8435;52.184;5.406;2024-03-17T05:15:52;9.00;99.90
16643;DHT22;8435;52.184;5.406;2024-03-17T05:18:19;9.00;99.90
16643;DHT22;8435;52.184;5.406;2024-03-17T05:20:57;9.00;99.90
16643;DHT22;8435;52.184;5.406;2024-03-17T05:23:25;9.00;99.90
16643;DHT22;8435;52.184;5.406;2024-03-17T05:25:53;9.10;99.90
16643;DHT22;8435;52.184;5.406;2024-03-17T05:28:20;9.10;99.90
16643;DHT22;8435;52.184;5.406;2024-03-17T05:30:48;9.10;99.90
16643;DHT22;8435;52.184;5.406;2024-03-17T05:33:16;9.10;99.90
16643;DHT22;8435;52.184;5.406;2024-03-17T05:35:48;9.10;99.90
16643;DHT22;8435;52.184;5.406;2024-03-17T05:38:15;9.10;99.90
16643;DHT22;8435;52.184;5.406;2024-03-17T05:40:52;9.10;99.90
16643;DHT22;8435;52.184;5.406;2024-03-17T05:43:21;9.10;99.90
16643;DHT22;8435;52.184;5.406;2024-03-17T05:45:49;9.20;99.90
16643;DHT22;8435;52.184;5.406;2024-03-17T05:48:17;9.20;99.90
16643;DHT22;8435;52.184;5.406;2024-03-17T05:50:45;9.20;99.90
16643;DHT22;8435;52.184;5.406;2024-03-17T05:53:12;9.20;99.90
16643;DHT22;8435;52.184;5.406;2024-03-17T05:55:39;9.20;99.90
16643;DHT22;8435;52.184;5.406;2024-03-17T05:58:08;9.20;99.90
16643;DHT22;8435;52.184;5.406;2024-03-17T06:00:35;9.20;99.90
16643;DHT22;8435;52.184;5.406;2024-03-17T06:03:06;9.20;99.90
16643;DHT22;8435;52.184;5.406;2024-03-17T06:05:33;9.20;99.90
16643;DHT22;8435;52.184;5.406;2024-03-17T06:08:01;9.20;99.90
16643;DHT22;8435;52.184;5.406;2024-03-17T06:10:28;9.20;99.90
16643;DHT22;8435;52.184;5.406;2024-03-17T06:12:55;9.30;99.90
16643;DHT22;8435;52.184;5.406;2024-03-17T06:15:22;9.30;99.90
16643;DHT22;8435;52.184;5.406;2024-03-17T06:17:50;9.30;99.90
16643;DHT22;8435;52.184;5.406;2024-03-17T06:20:19;9.30;99.90
16643;DHT22;8435;52.184;5.406;2024-03-17T06:22:45;9.30;99.90
16643;DHT22;8435;52.184;5.406;2024-03-17T06:25:12;9.40;99.90
16643;DHT22;8435;52.184;5.406;2024-03-17T06:27:39;9.40;99.90
16643;DHT22;8435;52.184;5.406;2024-03-17T06:30:09;9.40;99.90
16643;DHT22;8435;52.184;5.406;2024-03-17T06:32:39;9.40;99.90
16643;DHT22;8435;52.184;5.406;2024-03-17T06:35:07;9.40;99.90
16643;DHT22;8435;52.184;5.406;2024-03-17T06:37:36;9.40;99.90
16643;DHT22;8435;52.184;5.406;2024-03-17T06:40:05;9.50;99.90
16643;DHT22;8435;52.184;5.406;2024-03-17T06:42:32;9.50;99.90
16643;DHT22;8435;52.184;5.406;2024-03-17T06:45:01;9.60;99.90
16643;DHT22;8435;52.184;5.406;2024-03-17T06:47:28;9.70;99.90
16643;DHT22;8435;52.184;5.406;2024-03-17T06:49:55;9.70;99.90
16643;DHT22;8435;52.184;5.406;2024-03-17T06:52:22;9.60;99.90
16643;DHT22;8435;52.184;5.406;2024-03-17T06:54:50;9.80;99.90
16643;DHT22;8435;52.184;5.406;2024-03-17T06:57:17;9.80;99.90
16643;DHT22;8435;52.184;5.406;2024-03-17T06:59:44;9.90;99.90
16643;DHT22;8435;52.184;5.406;2024-03-17T07:02:11;9.90;99.90
16643;DHT22;8435;52.184;5.406;2024-03-17T07:04:42;10.00;99.90
16643;DHT22;8435;52.184;5.406;2024-03-17T07:07:08;10.00;99.90
16643;DHT22;8435;52.184;5.406;2024-03-17T07:09:35;10.10;99.90
16643;DHT22;8435;52.184;5.406;2024-03-17T07:12:03;10.10;99.90
16643;DHT22;8435;52.184;5.406;2024-03-17T07:14:30;10.20;99.90
16643;DHT22;8435;52.184;5.406;2024-03-17T07:16:59;10.20;99.90
16643;DHT22;8435;52.184;5.406;2024-03-17T07:19:31;10.20;99.90
16643;DHT22;8435;52.184;5.406;2024-03-17T07:21:58;10.30;99.90
16643;DHT22;8435;52.184;5.406;2024-03-17T07:24:25;10.30;99.90
16643;DHT22;8435;52.184;5.406;2024-03-17T07:26:53;10.40;99.90
16643;DHT22;8435;52.184;5.406;2024-03-17T07:29:21;10.50;99.90
16643;DHT22;8435;52.184;5.406;2024-03-17T07:31:47;10.50;99.90
16643;DHT22;8435;52.184;5.406;2024-03-17T07:34:16;10.60;99.90
16643;DHT22;8435;52.184;5.406;2024-03-17T07:36:42;10.60;99.90
16643;DHT22;8435;52.184;5.406;2024-03-17T07:39:10;10.70;99.90
16643;DHT22;8435;52.184;5.406;2024-03-17T07:41:37;10.80;99.90
16643;DHT22;8435;52.184;5.406;2024-03-17T07:44:06;10.90;99.90
16643;DHT22;8435;52.184;5.406;2024-03-17T07:46:34;11.00;99.90
16643;DHT22;8435;52.184;5.406;2024-03-17T07:49:01;11.10;99.90
16643;DHT22;8435;52.184;5.406;2024-03-17T07:51:28;11.20;99.90
16643;DHT22;8435;52.184;5.406;2024-03-17T07:53:54;11.30;99.90
16643;DHT22;8435;52.184;5.406;2024-03-17T07:56:21;11.40;99.90
16643;DHT22;8435;52.184;5.406;2024-03-17T07:58:51;11.50;99.90
16643;DHT22;8435;52.184;5.406;2024-03-17T08:01:20;11.70;99.90
16643;DHT22;8435;52.184;5.406;2024-03-17T08:03:50;11.70;99.90
16643;DHT22;8435;52.184;5.406;2024-03-17T08:06:23;11.80;99.90
16643;DHT22;8435;52.184;5.406;2024-03-17T08:08:50;11.90;99.90
16643;DHT22;8435;52.184;5.406;2024-03-17T08:11:17;12.00;99.90
16643;DHT22;8435;52.184;5.406;2024-03-17T08:13:43;12.10;99.90
16643;DHT22;8435;52.184;5.406;2024-03-17T08:16:10;12.20;99.90
16643;DHT22;8435;52.184;5.406;2024-03-17T08:18:37;12.20;99.90
16643;DHT22;8435;52.184;5.406;2024-03-17T08:21:05;12.30;99.90
16643;DHT22;8435;52.184;5.406;2024-03-17T08:23:32;12.30;99.90
16643;DHT22;8435;52.184;5.406;2024-03-17T08:26:01;12.30;99.90
16643;DHT22;8435;52.184;5.406;2024-03-17T08:28:28;12.40;99.90
16643;DHT22;8435;52.184;5.406;2024-03-17T08:30:57;12.40;99.90
16643;DHT22;8435;52.184;5.406;2024-03-17T08:33:24;12.40;99.90
16643;DHT22;8435;52.184;5.406;2024-03-17T08:35:55;12.40;99.70
16643;DHT22;8435;52.184;5.406;2024-03-17T08:38:23;12.40;99.70
16643;DHT22;8435;52.184;5.406;2024-03-17T08:40:51;12.40;99.70
16643;DHT22;8435;52.184;5.406;2024-03-17T08:43:18;12.40;99.70
16643;DHT22;8435;52.184;5.406;2024-03-17T08:45:45;12.40;99.60
16643;DHT22;8435;52.184;5.406;2024-03-17T08:48:12;12.40;99.50
16643;DHT22;8435;52.184;5.406;2024-03-17T08:50:38;12.40;99.50
16643;DHT22;8435;52.184;5.406;2024-03-17T08:53:06;12.40;99.50
16643;DHT22;8435;52.184;5.406;2024-03-17T08:55:38;12.40;99.60
16643;DHT22;8435;52.184;5.406;2024-03-17T08:58:05;12.40;99.60
16643;DHT22;8435;52.184;5.406;2024-03-17T09:00:34;12.40;99.70
16643;DHT22;8435;52.184;5.406;2024-03-17T09:03:02;12.50;99.70
16643;DHT22;8435;52.184;5.406;2024-03-17T09:05:32;12.50;99.70
16643;DHT22;8435;52.184;5.406;2024-03-17T09:07:59;12.60;99.70
16643;DHT22;8435;52.184;5.406;2024-03-17T09:10:26;12.60;99.70
16643;DHT22;8435;52.184;5.406;2024-03-17T09:12:54;12.70;99.50
16643;DHT22;8435;52.184;5.406;2024-03-17T09:15:22;12.80;99.50
16643;DHT22;8435;52.184;5.406;2024-03-17T09:17:49;12.90;99.50
16643;DHT22;8435;52.184;5.406;2024-03-17T09:20:16;12.90;99.40
16643;DHT22;8435;52.184;5.406;2024-03-17T09:22:43;12.90;99.30
16643;DHT22;8435;52.184;5.406;2024-03-17T09:25:10;13.00;99.30
16643;DHT22;8435;52.184;5.406;2024-03-17T09:27:37;13.00;99.30
16643;DHT22;8435;52.184;5.406;2024-03-17T09:30:06;13.10;99.30
16643;DHT22;8435;52.184;5.406;2024-03-17T09:32:35;13.10;99.30
16643;DHT22;8435;52.184;5.406;2024-03-17T09:35:01;13.20;99.30
16643;DHT22;8435;52.184;5.406;2024-03-17T09:37:29;13.20;99.30
16643;DHT22;8435;52.184;5.406;2024-03-17T09:39:56;13.30;99.30
16643;DHT22;8435;52.184;5.406;2024-03-17T09:42:25;13.40;99.20
16643;DHT22;8435;52.184;5.406;2024-03-17T09:44:53;13.50;99.10
16643;DHT22;8435;52.184;5.406;2024-03-17T09:47:24;13.50;98.90
16643;DHT22;8435;52.184;5.406;2024-03-17T09:49:52;13.60;98.70
16643;DHT22;8435;52.184;5.406;2024-03-17T09:52:21;13.70;98.60
16643;DHT22;8435;52.184;5.406;2024-03-17T09:54:53;13.80;98.60
16643;DHT22;8435;52.184;5.406;2024-03-17T09:57:22;13.80;98.30
16643;DHT22;8435;52.184;5.406;2024-03-17T09:59:51;13.80;98.30
16643;DHT22;8435;52.184;5.406;2024-03-17T10:02:18;13.90;98.30
16643;DHT22;8435;52.184;5.406;2024-03-17T10:04:46;13.90;98.40
16643;DHT22;8435;52.184;5.406;2024-03-17T10:07:13;14.00;98.40
16643;DHT22;8435;52.184;5.406;2024-03-17T10:09:41;14.00;98.50
16643;DHT22;8435;52.184;5.406;2024-03-17T10:12:26;14.10;98.60
16643;DHT22;8435;52.184;5.406;2024-03-17T10:14:59;14.20;98.30
16643;DHT22;8435;52.184;5.406;2024-03-17T10:17:30;14.30;98.30
16643;DHT22;8435;52.184;5.406;2024-03-17T10:20:13;14.40;98.20
16643;DHT22;8435;52.184;5.406;2024-03-17T10:23:00;14.40;97.90
16643;DHT22;8435;52.184;5.406;2024-03-17T10:25:31;14.60;97.90
16643;DHT22;8435;52.184;5.406;2024-03-17T10:28:01;14.60;98.30
16643;DHT22;8435;52.184;5.406;2024-03-17T10:30:28;14.70;98.00
16643;DHT22;8435;52.184;5.406;2024-03-17T10:32:57;14.70;98.10
16643;DHT22;8435;52.184;5.406;2024-03-17T10:35:30;14.70;98.30
16643;DHT22;8435;52.184;5.406;2024-03-17T10:37:58;14.90;97.80
16643;DHT22;8435;52.184;5.406;2024-03-17T10:40:26;15.00;98.00
16643;DHT22;8435;52.184;5.406;2024-03-17T10:42:55;15.00;97.90
16643;DHT22;8435;52.184;5.406;2024-03-17T10:45:22;15.00;97.90
16643;DHT22;8435;52.184;5.406;2024-03-17T10:47:50;15.20;97.80
16643;DHT22;8435;52.184;5.406;2024-03-17T10:50:20;15.30;97.90
16643;DHT22;8435;52.184;5.406;2024-03-17T10:52:49;15.30;97.60
16643;DHT22;8435;52.184;5.406;2024-03-17T10:55:21;15.40;97.50
16643;DHT22;8435;52.184;5.406;2024-03-17T10:57:49;15.50;97.50
16643;DHT22;8435;52.184;5.406;2024-03-17T11:00:18;15.60;97.50
16643;DHT22;8435;52.184;5.406;2024-03-17T11:02:48;15.80;97.50
16643;DHT22;8435;52.184;5.406;2024-03-17T11:05:18;15.90;97.10
16643;DHT22;8435;52.184;5.406;2024-03-17T11:07:49;16.00;97.10
16643;DHT22;8435;52.184;5.406;2024-03-17T11:10:19;16.20;97.00
16643;DHT22;8435;52.184;5.406;2024-03-17T11:12:48;16.30;96.90
16643;DHT22;8435;52.184;5.406;2024-03-17T11:15:38;16.40;96.90
16643;DHT22;8435;52.184;5.406;2024-03-17T11:18:28;16.60;96.30
16643;DHT22;8435;52.184;5.406;2024-03-17T11:20:57;16.60;95.90
16643;DHT22;8435;52.184;5.406;2024-03-17T11:23:28;16.70;96.30
16643;DHT22;8435;52.184;5.406;2024-03-17T11:25:56;16.80;95.80
16643;DHT22;8435;52.184;5.406;2024-03-17T11:28:48;16.90;95.30
16643;DHT22;8435;52.184;5.406;2024-03-17T11:31:48;17.00;94.40
16643;DHT22;8435;52.184;5.406;2024-03-17T11:34:37;17.00;95.10
16643;DHT22;8435;52.184;5.406;2024-03-17T11:37:05;17.10;94.90
16643;DHT22;8435;52.184;5.406;2024-03-17T11:39:54;17.10;94.90
16643;DHT22;8435;52.184;5.406;2024-03-17T11:42:26;17.20;94.20
16643;DHT22;8435;52.184;5.406;2024-03-17T11:44:56;17.20;94.50
16643;DHT22;8435;52.184;5.406;2024-03-17T11:47:22;17.20;94.50
16643;DHT22;8435;52.184;5.406;2024-03-17T11:49:51;17.20;94.50
16643;DHT22;8435;52.184;5.406;2024-03-17T11:52:17;17.20;93.90
16643;DHT22;8435;52.184;5.406;2024-03-17T11:54:46;17.10;94.20
16643;DHT22;8435;52.184;5.406;2024-03-17T11:57:23;17.10;94.30
16643;DHT22;8435;52.184;5.406;2024-03-17T11:59:51;17.00;93.90
16643;DHT22;8435;52.184;5.406;2024-03-17T12:02:19;17.00;94.00
16643;DHT22;8435;52.184;5.406;2024-03-17T12:04:47;16.90;94.00
16643;DHT22;8435;52.184;5.406;2024-03-17T12:07:15;16.80;94.20
16643;DHT22;8435;52.184;5.406;2024-03-17T12:09:43;16.70;94.20
16643;DHT22;8435;52.184;5.406;2024-03-17T12:12:11;16.60;94.40
16643;DHT22;8435;52.184;5.406;2024-03-17T12:14:40;16.50;94.50
16643;DHT22;8435;52.184;5.406;2024-03-17T12:17:07;16.40;94.50
16643;DHT22;8435;52.184;5.406;2024-03-17T12:19:35;16.40;94.60
16643;DHT22;8435;52.184;5.406;2024-03-17T12:22:03;16.40;94.80
16643;DHT22;8435;52.184;5.406;2024-03-17T12:24:32;16.30;94.90
16643;DHT22;8435;52.184;5.406;2024-03-17T12:27:04;16.20;94.90
16643;DHT22;8435;52.184;5.406;2024-03-17T12:29:32;16.20;95.00
16643;DHT22;8435;52.184;5.406;2024-03-17T12:32:01;16.20;95.20
16643;DHT22;8435;52.184;5.406;2024-03-17T12:34:29;16.20;95.20
16643;DHT22;8435;52.184;5.406;2024-03-17T12:36:58;16.20;95.50
16643;DHT22;8435;52.184;5.406;2024-03-17T12:39:27;16.20;95.40
16643;DHT22;8435;52.184;5.406;2024-03-17T12:42:07;16.20;95.40
16643;DHT22;8435;52.184;5.406;2024-03-17T12:44:34;16.20;95.20
16643;DHT22;8435;52.184;5.406;2024-03-17T12:47:04;16.30;95.50
16643;DHT22;8435;52.184;5.406;2024-03-17T12:49:31;16.30;95.50
16643;DHT22;8435;52.184;5.406;2024-03-17T12:52:00;16.30;95.40
16643;DHT22;8435;52.184;5.406;2024-03-17T12:54:27;16.30;95.40
16643;DHT22;8435;52.184;5.406;2024-03-17T12:57:05;16.40;95.50
16643;DHT22;8435;52.184;5.406;2024-03-17T12:59:49;16.40;95.40
16643;DHT22;8435;52.184;5.406;2024-03-17T13:02:41;16.40;95.40
16643;DHT22;8435;52.184;5.406;2024-03-17T13:05:14;16.40;95.10
16643;DHT22;8435;52.184;5.406;2024-03-17T13:07:42;16.40;95.10
16643;DHT22;8435;52.184;5.406;2024-03-17T13:10:10;16.40;95.20
16643;DHT22;8435;52.184;5.406;2024-03-17T13:12:38;16.40;95.20
16643;DHT22;8435;52.184;5.406;2024-03-17T13:15:06;16.30;95.00
16643;DHT22;8435;52.184;5.406;2024-03-17T13:17:39;16.30;95.20
16643;DHT22;8435;52.184;5.406;2024-03-17T13:20:07;16.30;95.20
16643;DHT22;8435;52.184;5.406;2024-03-17T13:22:37;16.20;95.40
16643;DHT22;8435;52.184;5.406;2024-03-17T13:25:08;16.30;95.40
16643;DHT22;8435;52.184;5.406;2024-03-17T13:27:35;16.20;95.40
16643;DHT22;8435;52.184;5.406;2024-03-17T13:30:02;16.20;95.40
16643;DHT22;8435;52.184;5.406;2024-03-17T13:32:29;16.20;95.40
16643;DHT22;8435;52.184;5.406;2024-03-17T13:34:57;16.20;95.40
16643;DHT22;8435;52.184;5.406;2024-03-17T13:37:23;16.20;95.30
16643;DHT22;8435;52.184;5.406;2024-03-17T13:39:50;16.20;95.50
16643;DHT22;8435;52.184;5.406;2024-03-17T13:42:17;16.20;95.50
16643;DHT22;8435;52.184;5.406;2024-03-17T13:44:44;16.20;95.70
16643;DHT22;8435;52.184;5.406;2024-03-17T13:47:11;16.20;95.80
16643;DHT22;8435;52.184;5.406;2024-03-17T13:49:39;16.20;95.70
16643;DHT22;8435;52.184;5.406;2024-03-17T13:52:08;16.30;95.70
16643;DHT22;8435;52.184;5.406;2024-03-17T13:54:35;16.30;95.50
16643;DHT22;8435;52.184;5.406;2024-03-17T13:57:01;16.40;95.60
16643;DHT22;8435;52.184;5.406;2024-03-17T13:59:30;16.40;95.70
16643;DHT22;8435;52.184;5.406;2024-03-17T14:01:57;16.50;95.60
16643;DHT22;8435;52.184;5.406;2024-03-17T14:04:24;16.50;95.60
16643;DHT22;8435;52.184;5.406;2024-03-17T14:06:51;16.50;95.50
16643;DHT22;8435;52.184;5.406;2024-03-17T14:09:20;16.50;95.50
16643;DHT22;8435;52.184;5.406;2024-03-17T14:11:48;16.50;95.50
16643;DHT22;8435;52.184;5.406;2024-03-17T14:14:17;16.50;95.50
16643;DHT22;8435;52.184;5.406;2024-03-17T14:16:47;16.50;95.40
16643;DHT22;8435;52.184;5.406;2024-03-17T14:19:14;16.60;95.50
16643;DHT22;8435;52.184;5.406;2024-03-17T14:21:41;16.50;95.60
16643;DHT22;8435;52.184;5.406;2024-03-17T14:24:08;16.50;95.50
16643;DHT22;8435;52.184;5.406;2024-03-17T14:26:37;16.50;95.70
16643;DHT22;8435;52.184;5.406;2024-03-17T14:29:04;16.50;95.60
16643;DHT22;8435;52.184;5.406;2024-03-17T14:31:40;16.50;95.70
16643;DHT22;8435;52.184;5.406;2024-03-17T14:34:09;16.50;96.00
16643;DHT22;8435;52.184;5.406;2024-03-17T14:36:36;16.50;95.90
16643;DHT22;8435;52.184;5.406;2024-03-17T14:39:03;16.50;96.00
16643;DHT22;8435;52.184;5.406;2024-03-17T14:41:30;16.50;96.00
16643;DHT22;8435;52.184;5.406;2024-03-17T14:43:59;16.60;95.90
16643;DHT22;8435;52.184;5.406;2024-03-17T14:46:32;16.60;95.70
16643;DHT22;8435;52.184;5.406;2024-03-17T14:48:59;16.60;95.80
16643;DHT22;8435;52.184;5.406;2024-03-17T14:51:26;16.60;96.10
16643;DHT22;8435;52.184;5.406;2024-03-17T14:53:53;16.60;95.60
16643;DHT22;8435;52.184;5.406;2024-03-17T14:56:22;16.70;95.50
16643;DHT22;8435;52.184;5.406;2024-03-17T14:58:49;16.70;95.70
16643;DHT22;8435;52.184;5.406;2024-03-17T15:01:17;16.70;95.80
16643;DHT22;8435;52.184;5.406;2024-03-17T15:03:44;16.80;95.70
16643;DHT22;8435;52.184;5.406;2024-03-17T15:06:12;16.80;95.60
16643;DHT22;8435;52.184;5.406;2024-03-17T15:08:40;16.80;95.50
16643;DHT22;8435;52.184;5.406;2024-03-17T15:11:07;16.80;95.60
16643;DHT22;8435;52.184;5.406;2024-03-17T15:13:35;16.80;95.60
16643;DHT22;8435;52.184;5.406;2024-03-17T15:16:02;16.80;95.50
16643;DHT22;8435;52.184;5.406;2024-03-17T15:18:31;16.80;95.50
16643;DHT22;8435;52.184;5.406;2024-03-17T15:20:59;16.80;95.40
16643;DHT22;8435;52.184;5.406;2024-03-17T15:23:27;16.70;95.40
16643;DHT22;8435;52.184;5.406;2024-03-17T15:26:01;16.70;95.40
16643;DHT22;8435;52.184;5.406;2024-03-17T15:28:33;16.70;95.50
16643;DHT22;8435;52.184;5.406;2024-03-17T15:31:02;16.60;95.60
16643;DHT22;8435;52.184;5.406;2024-03-17T15:33:31;16.60;95.70
16643;DHT22;8435;52.184;5.406;2024-03-17T15:36:00;16.60;95.80
16643;DHT22;8435;52.184;5.406;2024-03-17T15:38:26;16.60;95.80
16643;DHT22;8435;52.184;5.406;2024-03-17T15:40:53;16.50;95.80
16643;DHT22;8435;52.184;5.406;2024-03-17T15:43:20;16.50;95.80
16643;DHT22;8435;52.184;5.406;2024-03-17T15:45:46;16.50;96.00
16643;DHT22;8435;52.184;5.406;2024-03-17T15:48:13;16.50;96.10
16643;DHT22;8435;52.184;5.406;2024-03-17T15:50:42;16.40;96.10
16643;DHT22;8435;52.184;5.406;2024-03-17T15:53:09;16.40;96.10
16643;DHT22;8435;52.184;5.406;2024-03-17T15:55:36;16.40;96.10
16643;DHT22;8435;52.184;5.406;2024-03-17T15:58:04;16.40;96.10
16643;DHT22;8435;52.184;5.406;2024-03-17T16:00:33;16.30;96.10